Time;durP1;ratioP1;P1;durP2;ratioP2;P2;SDS_P1;SDS_P2;PMS_P1;PMS_P2;Temp;Humidity;BMP_temperature;BMP_pressure;BME280_temperature;BME280_humidity;BME280_pressure;Samples;Min_cycle;Max_cycle;Signal;HPM_P1;HPM_P2
2022/12/14 00:00:33;;;;;;;;;;;;;;;6.37;44.11;98777.31;5034250;28;19922;-88
2022/12/14 00:02:58;;;;;;;;;;;;;;;6.39;44.09;98780.66;4998940;28;19924;-86
2022/12/14 00:05:23;;;;;;;;;;;;;;;6.39;44.48;98778.91;4998534;28;19924;-91
2022/12/14 00:07:49;;;;;;;;;;;;;;;6.41;44.57;98792.63;4998310;28;20336;-91
2022/12/14 00:10:14;;;;;;;;;;;;;;;6.42;44.39;98796.03;5015531;28;19922;-90
2022/12/14 00:12:39;;;;;;;;;;;;;;;6.41;44.35;98795.22;5014676;28;20377;-89
2022/12/14 00:15:05;;;;;;;;;;;;;;;6.43;44.25;98805.50;4997488;28;20304;-90
2022/12/14 00:17:30;;;;;;;;;;;;;;;6.42;44.53;98790.84;5014277;28;19921;-91
2022/12/14 00:19:55;;;;;;;;;;;;;;;6.42;44.71;98789.13;4997486;28;20007;-84
2022/12/14 00:22:21;;;;;;;;;;;;;;;6.41;44.00;98797.81;4995455;28;19918;-87
2022/12/14 00:24:46;;;;;;;;;;;;;;;6.42;44.38;98796.03;5014220;28;20383;-86
2022/12/14 00:27:12;;;;;;;;;;;;;;;6.42;44.52;98799.47;5011954;28;19917;-84
2022/12/14 00:29:38;;;;;;;;;;;;;;;6.43;44.65;98793.34;4992030;28;20305;-83
2022/12/14 00:32:03;;;;;;;;;;;;;;;6.43;43.97;98800.31;4975715;28;19918;-80
2022/12/14 00:34:28;;;;;;;;;;;;;;;6.43;44.24;98801.13;4975691;28;19961;-84
2022/12/14 00:36:54;;;;;;;;;;;;;;;6.44;44.79;98800.22;4993140;28;19976;-83
2022/12/14 00:39:19;;;;;;;;;;;;;;;6.47;44.77;98799.22;4992332;28;19925;-83
2022/12/14 00:41:45;;;;;;;;;;;;;;;6.46;44.35;98806.13;4991938;28;19918;-83
2022/12/14 00:44:10;;;;;;;;;;;;;;;6.46;44.30;98800.94;4991913;28;19918;-84
2022/12/14 00:46:35;;;;;;;;;;;;;;;6.47;44.67;98801.81;4991386;28;19925;-85
2022/12/14 00:49:00;;;;;;;;;;;;;;;6.46;44.02;98802.72;4991752;28;19924;-84
2022/12/14 00:51:26;;;;;;;;;;;;;;;6.46;43.86;98802.72;4991381;28;19972;-84
2022/12/14 00:53:51;;;;;;;;;;;;;;;6.46;44.22;98806.13;4992287;28;19925;-83
2022/12/14 00:56:16;;;;;;;;;;;;;;;6.47;43.93;98794.03;4993241;28;20430;-84
2022/12/14 00:58:42;;;;;;;;;;;;;;;6.47;44.21;98799.22;4991688;28;19918;-84
2022/12/14 01:01:11;;;;;;;;;;;;;;;6.47;44.30;98788.84;4992844;28;20369;-83
2022/12/14 01:03:36;;;;;;;;;;;;;;;6.47;44.47;98792.25;4975632;28;20317;-86
2022/12/14 01:06:01;;;;;;;;;;;;;;;6.50;44.46;98794.69;4991551;28;19950;-84
2022/12/14 01:08:33;;;;;;;;;;;;;;;6.49;44.54;98787.81;4991086;28;19921;-83
2022/12/14 01:11:01;;;;;;;;;;;;;;;6.49;44.29;98793.00;4991777;28;19922;-83
2022/12/14 01:13:26;;;;;;;;;;;;;;;6.49;45.16;98803.38;4993617;28;20317;-83
2022/12/14 01:15:52;;;;;;;;;;;;;;;6.50;44.90;98797.28;4995290;28;19968;-84
2022/12/14 01:18:17;;;;;;;;;;;;;;;6.51;44.97;98792.91;4995145;28;19993;-83
2022/12/14 01:20:42;;;;;;;;;;;;;;;6.52;45.15;98794.59;4996145;28;19925;-84
2022/12/14 01:23:08;;;;;;;;;;;;;;;6.51;44.79;98788.56;4994808;28;20381;-83
2022/12/14 01:25:33;;;;;;;;;;;;;;;6.52;44.85;98790.22;4996567;28;19976;-86
2022/12/14 01:27:58;;;;;;;;;;;;;;;6.53;45.11;98796.25;4996052;28;19917;-88
2022/12/14 01:30:24;;;;;;;;;;;;;;;6.52;44.75;98792.00;5011040;28;20383;-89
2022/12/14 01:32:49;;;;;;;;;;;;;;;6.52;44.92;98789.41;4999895;28;19924;-87
2022/12/14 01:35:14;;;;;;;;;;;;;;;6.53;44.33;98783.28;4999975;28;19917;-89
2022/12/14 01:37:39;;;;;;;;;;;;;;;6.54;45.06;98774.56;5000300;28;19980;-88
2022/12/14 01:40:05;;;;;;;;;;;;;;;6.54;44.49;98782.34;5017622;28;19940;-87
2022/12/14 01:42:30;;;;;;;;;;;;;;;6.55;44.62;98775.41;4999745;28;20314;-89
2022/12/14 01:44:56;;;;;;;;;;;;;;;6.56;44.41;98780.50;4999803;28;19917;-89
2022/12/14 01:47:26;;;;;;;;;;;;;;;6.57;44.76;98778.75;4999873;28;19917;-89
2022/12/14 01:50:10;;;;;;;;;;;;;;;6.57;44.57;98774.41;4999805;28;19917;-90
2022/12/14 01:52:39;;;;;;;;;;;;;;;6.59;44.63;98780.31;4999671;28;20377;-89
2022/12/14 01:55:24;;;;;;;;;;;;;;;6.58;44.53;98783.84;5017106;28;19921;-88
2022/12/14 01:57:49;;;;;;;;;;;;;;;6.61;44.62;98791.47;4999032;28;19917;-89
2022/12/14 02:00:15;;;;;;;;;;;;;;;6.61;44.77;98788.88;4999587;28;19924;-90
2022/12/14 02:02:44;;;;;;;;;;;;;;;6.62;44.59;98793.09;5015872;28;19917;-89
2022/12/14 02:05:10;;;;;;;;;;;;;;;6.64;44.76;98793.88;4999390;28;19975;-89
2022/12/14 02:07:35;;;;;;;;;;;;;;;6.64;44.62;98793.88;5014304;28;19917;-89
2022/12/14 02:10:01;;;;;;;;;;;;;;;6.67;44.96;98803.22;5013465;28;19922;-88
2022/12/14 02:12:34;;;;;;;;;;;;;;;6.65;44.62;98800.72;5013928;28;19961;-87
2022/12/14 02:14:59;;;;;;;;;;;;;;;6.68;44.55;98800.53;5014140;28;19918;-87
2022/12/14 02:17:24;;;;;;;;;;;;;;;6.68;44.80;98804.88;4997478;28;19976;-88
2022/12/14 02:19:50;;;;;;;;;;;;;;;6.69;44.54;98804.81;5014688;28;20369;-88
2022/12/14 02:22:18;;;;;;;;;;;;;;;6.72;45.48;98806.38;5013518;28;19917;-88
2022/12/14 02:25:03;;;;;;;;;;;;;;;6.73;44.54;98794.25;5013639;28;19922;-88
2022/12/14 02:27:55;;;;;;;;;;;;;;;6.72;45.28;98808.13;4997138;28;20290;-88
2022/12/14 02:30:20;;;;;;;;;;;;;;;6.73;45.54;98808.03;5010303;28;19933;-89
2022/12/14 02:32:55;;;;;;;;;;;;;;;6.72;45.64;98813.31;5014490;28;19918;-87
2022/12/14 02:35:24;;;;;;;;;;;;;;;6.72;45.02;98826.28;5013662;28;19928;-88
2022/12/14 02:38:10;;;;;;;;;;;;;;;6.73;45.30;98822.78;4996953;28;19924;-89
2022/12/14 02:40:37;;;;;;;;;;;;;;;6.70;45.32;98819.44;4934434;29;19971;-82
2022/12/14 02:43:02;;;;;;;;;;;;;;;6.70;45.19;98835.03;4918759;29;20025;-82
2022/12/14 02:45:34;;;;;;;;;;;;;;;6.69;45.27;98843.72;4934891;29;20009;-82
2022/12/14 02:48:05;;;;;;;;;;;;;;;6.68;44.78;98842.03;4919173;29;19919;-82
2022/12/14 02:50:40;;;;;;;;;;;;;;;6.66;44.71;98835.28;4919016;29;19970;-86
2022/12/14 02:53:15;;;;;;;;;;;;;;;6.65;44.50;98824.06;4918688;29;19919;-84
2022/12/14 02:55:44;;;;;;;;;;;;;;;6.62;44.46;98820.81;4934594;29;19919;-87
2022/12/14 02:58:18;;;;;;;;;;;;;;;6.61;44.20;98826.91;4934528;29;19966;-83
2022/12/14 03:00:51;;;;;;;;;;;;;;;6.60;44.55;98833.06;4918887;29;20470;-83
2022/12/14 03:03:16;;;;;;;;;;;;;;;6.59;44.68;98845.16;4934405;29;19974;-83
2022/12/14 03:05:41;;;;;;;;;;;;;;;6.59;44.54;98854.72;4934263;29;19919;-83
2022/12/14 03:08:10;;;;;;;;;;;;;;;6.59;44.28;98852.94;4918663;29;20017;-82
2022/12/14 03:10:38;;;;;;;;;;;;;;;6.57;43.88;98849.59;4919865;29;20015;-80
2022/12/14 03:13:18;;;;;;;;;;;;;;;6.55;43.76;98845.44;4932121;29;19923;-82
2022/12/14 03:15:44;;;;;;;;;;;;;;;6.54;43.57;98852.38;4929471;29;20003;-84
2022/12/14 03:18:10;;;;;;;;;;;;;;;6.51;43.49;98860.34;4973827;28;19917;-85
2022/12/14 03:20:36;;;;;;;;;;;;;;;6.51;43.57;98863.78;5013985;28;19918;-84
2022/12/14 03:23:11;;;;;;;;;;;;;;;6.49;43.41;98863.03;4995991;28;20373;-85
2022/12/14 03:25:39;;;;;;;;;;;;;;;6.49;42.96;98851.81;5012868;28;20393;-84
2022/12/14 03:28:27;;;;;;;;;;;;;;;6.48;43.10;98838.03;5013526;28;19917;-84
2022/12/14 03:30:56;;;;;;;;;;;;;;;6.47;43.12;98840.72;4934011;29;19979;-83
2022/12/14 03:33:21;;;;;;;;;;;;;;;6.46;43.04;98839.84;4933969;29;19945;-83
2022/12/14 03:36:00;;;;;;;;;;;;;;;6.47;42.53;98835.53;4902160;29;20422;-83
2022/12/14 03:38:28;;;;;;;;;;;;;;;6.46;43.31;98845.03;4918391;29;19919;-87
2022/12/14 03:41:14;;;;;;;;;;;;;;;6.46;43.32;98850.22;4902389;29;19958;-88
2022/12/14 03:43:40;;;;;;;;;;;;;;;6.45;42.97;98837.34;4933768;29;20048;-85
2022/12/14 03:46:17;;;;;;;;;;;;;;;6.44;43.45;98841.72;4933828;29;19923;-85
2022/12/14 03:48:44;;;;;;;;;;;;;;;6.45;42.72;98842.53;4918137;29;19981;-92
2022/12/14 03:51:28;;;;;;;;;;;;;;;6.44;43.30;98827.91;4919579;29;20340;-91
2022/12/14 03:54:22;;;;;;;;;;;;;;;6.46;43.38;98833.84;4938836;29;20440;-94
2022/12/14 03:56:55;;;;;;;;;;;;;;;6.46;43.35;98823.47;4879876;29;20022;-94
2022/12/14 03:59:23;;;;;;;;;;;;;;;6.45;43.14;98821.78;4864760;29;19920;-93
2022/12/14 04:01:54;;;;;;;;;;;;;;;6.44;43.86;98820.97;4877813;29;20042;-85
2022/12/14 04:04:26;;;;;;;;;;;;;;;6.43;43.86;98818.47;4878374;29;19930;-92
2022/12/14 04:06:58;;;;;;;;;;;;;;;6.41;43.54;98810.75;4850837;29;19919;-93
2022/12/14 04:09:26;;;;;;;;;;;;;;;6.38;44.42;98808.34;4917882;29;19942;-93
2022/12/14 04:18:55;;;;;;;;;;;;;;;6.34;44.47;98815.47;4925531;29;20463;-95
2022/12/14 04:20:37;;;;;;;;;;;;;;;6.31;44.78;98818.25;4981035;28;19925;-88
2022/12/14 04:23:05;;;;;;;;;;;;;;;6.28;44.25;98809.81;4976502;28;19918;-92
2022/12/14 04:31:03;;;;;;;;;;;;;;;6.20;44.88;98807.66;4978854;28;19924;-83
2022/12/14 04:33:46;;;;;;;;;;;;;;;6.16;44.73;98794.03;4975880;28;20354;-80
2022/12/14 04:36:13;;;;;;;;;;;;;;;6.13;45.17;98794.19;4962131;28;19918;-89
2022/12/14 04:38:39;;;;;;;;;;;;;;;6.11;45.15;98785.69;4975880;28;19917;-81
2022/12/14 04:41:08;;;;;;;;;;;;;;;6.10;45.12;98775.41;4959396;28;19918;-80
2022/12/14 04:43:37;;;;;;;;;;;;;;;6.07;44.89;98776.44;4976259;28;19972;-82
2022/12/14 04:46:05;;;;;;;;;;;;;;;6.07;45.22;98775.56;4993082;28;20314;-82
2022/12/14 04:48:33;;;;;;;;;;;;;;;6.04;44.90;98768.81;4978182;28;20005;-85
2022/12/14 04:51:17;;;;;;;;;;;;;;;6.04;45.36;98773.16;4980338;28;19918;-88
2022/12/14 04:53:42;;;;;;;;;;;;;;;6.01;45.35;98765.56;4997111;28;19918;-87
2022/12/14 04:56:12;;;;;;;;;;;;;;;5.98;45.49;98770.00;4963777;28;20303;-89
2022/12/14 04:58:37;;;;;;;;;;;;;;;5.97;45.08;98770.91;4980048;28;20012;-90
2022/12/14 05:01:09;;;;;;;;;;;;;;;5.96;45.23;98765.78;4979584;28;20411;-79
2022/12/14 05:03:35;;;;;;;;;;;;;;;6.13;57.88;98770.88;4981308;28;19918;-78
2022/12/14 05:06:13;;;;;;;;;;;;;;;6.91;74.32;98781.91;4980876;28;20040;-87
2022/12/14 05:08:57;;;;;;;;;;;;;;;6.98;70.93;98780.63;4983509;28;19918;-81
2022/12/14 05:11:27;;;;;;;;;;;;;;;7.07;63.60;98780.91;5005148;28;19968;-79
2022/12/14 05:13:53;;;;;;;;;;;;;;;7.07;60.69;98790.47;4978774;28;19918;-79
2022/12/14 05:16:19;;;;;;;;;;;;;;;7.09;66.35;98790.38;4996281;28;19925;-83
2022/12/14 05:18:44;;;;;;;;;;;;;;;7.14;62.02;98780.53;4978563;28;19926;-79
2022/12/14 05:21:45;;;;;;;;;;;;;;;7.12;59.34;98785.00;4962877;28;20354;-80
2022/12/14 05:23:58;;;;;;;;;;;;;;;7.02;57.80;98795.06;4981828;28;20273;-81
2022/12/14 05:26:24;;;;;;;;;;;;;;;6.94;57.24;98805.94;4963131;28;20313;-82
2022/12/14 05:28:49;;;;;;;;;;;;;;;6.89;57.00;98813.16;4978613;28;19972;-80
2022/12/14 05:31:15;;;;;;;;;;;;;;;6.85;56.47;98809.91;4978759;28;19918;-80
2022/12/14 05:33:40;;;;;;;;;;;;;;;6.83;55.76;98821.28;4978566;28;19967;-81
2022/12/14 05:36:05;;;;;;;;;;;;;;;6.80;55.38;98822.34;4978689;28;19925;-88
2022/12/14 05:38:31;;;;;;;;;;;;;;;6.81;54.41;98825.75;4962084;28;19941;-88
2022/12/14 05:40:56;;;;;;;;;;;;;;;6.80;53.97;98827.53;4995837;28;19922;-80
2022/12/14 05:43:21;;;;;;;;;;;;;;;6.80;53.54;98811.09;4995743;28;19918;-77
2022/12/14 05:45:47;;;;;;;;;;;;;;;6.79;53.20;98809.44;4978114;28;19922;-78
2022/12/14 05:48:12;;;;;;;;;;;;;;;6.79;52.62;98815.47;4978208;28;19924;-81
2022/12/14 05:50:37;;;;;;;;;;;;;;;6.79;51.95;98818.06;4995429;28;19918;-80
2022/12/14 05:53:02;;;;;;;;;;;;;;;6.78;51.27;98826.75;4978668;28;19984;-81
2022/12/14 05:55:28;;;;;;;;;;;;;;;6.79;50.49;98833.63;4978316;28;19924;-81
2022/12/14 05:57:53;;;;;;;;;;;;;;;6.80;50.19;98837.03;4995332;28;19917;-82
2022/12/14 06:00:18;;;;;;;;;;;;;;;6.81;49.29;98849.94;4976943;28;19925;-82
2022/12/14 06:02:44;;;;;;;;;;;;;;;6.83;49.00;98855.03;4976975;28;20008;-81
2022/12/14 06:05:09;;;;;;;;;;;;;;;6.83;47.70;98857.63;4976812;28;19953;-83
2022/12/14 06:07:36;;;;;;;;;;;;;;;6.84;48.45;98852.34;4961485;28;19922;-82
2022/12/14 06:10:01;;;;;;;;;;;;;;;6.85;47.79;98856.63;4979164;28;19917;-83
2022/12/14 06:12:26;;;;;;;;;;;;;;;6.88;47.14;98848.66;4995231;28;20316;-82
2022/12/14 06:14:52;;;;;;;;;;;;;;;6.89;46.51;98846.88;4977691;28;19918;-82
2022/12/14 06:17:17;;;;;;;;;;;;;;;6.93;46.24;98848.38;4977444;28;19977;-85
2022/12/14 06:19:42;;;;;;;;;;;;;;;6.96;46.23;98858.59;4962838;28;19917;-83
2022/12/14 06:22:08;;;;;;;;;;;;;;;7.00;45.28;98851.44;4962990;28;20453;-80
2022/12/14 06:24:33;;;;;;;;;;;;;;;7.05;44.97;98854.59;4963310;28;19973;-82
2022/12/14 06:26:58;;;;;;;;;;;;;;;7.09;45.31;98853.50;4978690;28;20375;-83
2022/12/14 06:29:24;;;;;;;;;;;;;;;7.18;44.32;98854.69;4987231;28;19941;-81
2022/12/14 06:31:50;;;;;;;;;;;;;;;7.26;44.93;98847.28;4970262;28;20355;-82
2022/12/14 06:34:15;;;;;;;;;;;;;;;7.38;44.60;98837.91;4962931;28;19917;-82
2022/12/14 06:36:41;;;;;;;;;;;;;;;7.49;44.30;98837.25;4962164;28;20381;-81
2022/12/14 06:39:07;;;;;;;;;;;;;;;7.60;43.96;98842.59;4978633;28;19917;-80
2022/12/14 06:41:32;;;;;;;;;;;;;;;7.72;43.64;98836.63;4997196;28;19940;-81
2022/12/14 06:44:04;;;;;;;;;;;;;;;7.89;42.90;98835.59;4996651;28;20365;-81
2022/12/14 06:46:29;;;;;;;;;;;;;;;8.36;42.15;98830.00;4965755;28;20305;-82
2022/12/14 06:48:55;;;;;;;;;;;;;;;8.66;41.41;98838.38;4963049;28;19918;-83
2022/12/14 06:51:20;;;;;;;;;;;;;;;8.74;40.97;98852.69;4982299;28;20356;-84
2022/12/14 06:53:49;;;;;;;;;;;;;;;8.85;40.73;98869.22;4970820;28;19918;-83
2022/12/14 06:56:16;;;;;;;;;;;;;;;9.19;40.16;98858.31;4980460;28;19980;-82
2022/12/14 06:58:42;;;;;;;;;;;;;;;9.98;39.33;98858.00;4966102;28;19971;-83
2022/12/14 07:01:08;;;;;;;;;;;;;;;10.39;38.72;98857.66;4965081;28;19918;-84
2022/12/14 07:03:34;;;;;;;;;;;;;;;11.34;37.30;98856.66;4980104;28;19976;-84
2022/12/14 07:05:59;;;;;;;;;;;;;;;12.12;36.43;98863.56;4962144;28;20020;-82
2022/12/14 07:08:25;;;;;;;;;;;;;;;12.84;34.86;98871.72;4961867;28;19925;-83
2022/12/14 07:10:50;;;;;;;;;;;;;;;13.58;33.19;98878.56;4960814;28;19923;-81
2022/12/14 07:13:16;;;;;;;;;;;;;;;14.33;31.56;98870.28;4976989;28;19924;-83
2022/12/14 07:15:41;;;;;;;;;;;;;;;15.04;29.96;98863.88;4977324;28;20349;-83
2022/12/14 07:18:06;;;;;;;;;;;;;;;15.71;28.57;98862.78;4976711;28;20376;-83
2022/12/14 07:20:32;;;;;;;;;;;;;;;16.31;27.45;98863.28;4995268;28;19976;-83
2022/12/14 07:22:57;;;;;;;;;;;;;;;16.77;26.01;98870.06;4977118;28;19924;-83
2022/12/14 07:25:22;;;;;;;;;;;;;;;17.24;25.26;98870.75;4961167;28;20001;-83
2022/12/14 07:27:48;;;;;;;;;;;;;;;17.62;24.23;98880.00;4961982;28;19917;-83
2022/12/14 07:30:13;;;;;;;;;;;;;;;18.01;23.64;98871.56;4961783;28;19924;-82
2022/12/14 07:32:39;;;;;;;;;;;;;;;18.32;23.24;98875.44;4961004;28;20440;-84
2022/12/14 07:35:04;;;;;;;;;;;;;;;18.53;22.44;98875.78;4976803;28;20412;-83
2022/12/14 07:37:30;;;;;;;;;;;;;;;18.91;22.02;98880.56;4962285;28;19965;-82
2022/12/14 07:39:55;;;;;;;;;;;;;;;18.70;22.15;98867.84;4977914;28;19941;-84
2022/12/14 07:42:20;;;;;;;;;;;;;;;18.96;21.71;98868.50;4961045;28;19918;-83
2022/12/14 07:44:46;;;;;;;;;;;;;;;19.09;21.54;98867.16;4978405;28;19925;-84
2022/12/14 07:47:11;;;;;;;;;;;;;;;18.72;21.96;98861.41;4961160;28;20000;-82
2022/12/14 07:49:36;;;;;;;;;;;;;;;18.71;21.83;98869.50;4977426;28;19929;-86
2022/12/14 07:52:02;;;;;;;;;;;;;;;18.40;22.11;98870.13;4977925;28;19924;-83
2022/12/14 07:54:28;;;;;;;;;;;;;;;18.85;21.84;98860.91;4961796;28;19917;-83
2022/12/14 07:56:53;;;;;;;;;;;;;;;19.16;21.71;98855.75;4977429;28;20381;-83
2022/12/14 07:59:18;;;;;;;;;;;;;;;19.56;21.61;98857.56;4993733;28;19961;-81
2022/12/14 08:01:44;;;;;;;;;;;;;;;19.81;21.39;98866.25;4996178;28;20009;-82
2022/12/14 08:04:10;;;;;;;;;;;;;;;20.01;21.28;98880.72;4960223;28;20020;-81
2022/12/14 08:06:35;;;;;;;;;;;;;;;20.33;20.79;98883.34;4959667;28;19921;-82
2022/12/14 08:09:01;;;;;;;;;;;;;;;20.73;20.51;98874.28;4976136;28;19968;-82
2022/12/14 08:11:26;;;;;;;;;;;;;;;20.95;19.88;98880.56;4960546;28;19973;-82
2022/12/14 08:13:52;;;;;;;;;;;;;;;21.21;19.60;98875.84;4976605;28;19922;-84
2022/12/14 08:16:17;;;;;;;;;;;;;;;21.39;19.43;98878.94;4993934;28;20388;-83
2022/12/14 08:18:43;;;;;;;;;;;;;;;21.65;19.43;98888.31;4960058;28;20013;-85
2022/12/14 08:21:09;;;;;;;;;;;;;;;21.73;18.74;98892.66;4960387;28;19961;-82
2022/12/14 08:23:34;;;;;;;;;;;;;;;21.97;18.88;98891.56;4979645;28;19925;-83
2022/12/14 08:25:59;;;;;;;;;;;;;;;22.08;18.71;98898.22;4965092;28;19925;-81
2022/12/14 08:28:25;;;;;;;;;;;;;;;21.88;18.74;98903.28;4964253;28;19925;-82
2022/12/14 08:30:50;;;;;;;;;;;;;;;21.36;19.56;98897.06;4980471;28;19953;-84
2022/12/14 08:33:16;;;;;;;;;;;;;;;20.90;19.58;98900.66;4964155;28;19925;-82
2022/12/14 08:35:41;;;;;;;;;;;;;;;20.43;20.02;98898.03;4964348;28;19929;-84
2022/12/14 08:38:07;;;;;;;;;;;;;;;19.96;20.31;98898.16;4964844;28;20376;-82
2022/12/14 08:40:35;;;;;;;;;;;;;;;19.50;20.86;98894.34;4964294;28;20357;-82
2022/12/14 08:43:01;;;;;;;;;;;;;;;19.11;21.39;98892.44;4963815;28;19922;-82
2022/12/14 08:45:26;;;;;;;;;;;;;;;19.08;21.41;98894.59;4964060;28;19929;-85
2022/12/14 08:47:51;;;;;;;;;;;;;;;19.76;20.98;98903.00;4979812;28;19918;-82
2022/12/14 08:50:17;;;;;;;;;;;;;;;20.33;20.56;98901.91;4980638;28;20389;-82
2022/12/14 08:52:42;;;;;;;;;;;;;;;20.62;20.36;98901.22;4964416;28;19925;-83
2022/12/14 08:55:07;;;;;;;;;;;;;;;20.64;20.13;98885.97;4979963;28;19918;-82
2022/12/14 08:57:32;;;;;;;;;;;;;;;20.81;20.09;98885.81;4980428;28;20341;-83
2022/12/14 08:59:58;;;;;;;;;;;;;;;21.22;19.50;98877.47;4963939;28;19953;-82
2022/12/14 09:02:23;;;;;;;;;;;;;;;21.16;19.83;98876.38;4963459;28;19918;-83
2022/12/14 09:04:48;;;;;;;;;;;;;;;21.51;19.54;98876.69;4963790;28;20415;-83
2022/12/14 09:07:14;;;;;;;;;;;;;;;21.50;19.52;98878.50;4980332;28;20293;-84
2022/12/14 09:09:39;;;;;;;;;;;;;;;21.60;19.40;98880.06;4965485;28;19940;-83
2022/12/14 09:12:07;;;;;;;;;;;;;;;21.24;19.78;98873.63;4997278;28;20056;-82
2022/12/14 09:14:33;;;;;;;;;;;;;;;21.37;19.66;98867.69;4964940;28;19918;-82
2022/12/14 09:16:58;;;;;;;;;;;;;;;21.75;19.48;98864.09;4980386;28;20361;-83
2022/12/14 09:19:23;;;;;;;;;;;;;;;21.72;19.14;98859.16;4964627;28;19918;-82
2022/12/14 09:21:49;;;;;;;;;;;;;;;21.67;19.19;98851.75;4980269;28;19917;-81
2022/12/14 09:24:14;;;;;;;;;;;;;;;21.34;19.54;98854.75;4963613;28;20300;-82
2022/12/14 09:26:39;;;;;;;;;;;;;;;20.56;20.05;98846.22;4997371;28;19922;-82
2022/12/14 09:29:05;;;;;;;;;;;;;;;19.98;20.39;98849.28;4962962;28;19917;-84
2022/12/14 09:31:30;;;;;;;;;;;;;;;19.44;20.95;98838.59;4963301;28;19972;-82
2022/12/14 09:33:55;;;;;;;;;;;;;;;18.95;21.47;98844.88;4964143;28;19941;-81
2022/12/14 09:36:22;;;;;;;;;;;;;;;18.36;21.88;98835.28;4980753;28;19918;-81
2022/12/14 09:38:48;;;;;;;;;;;;;;;17.81;22.45;98836.66;4963445;28;19991;-85
2022/12/14 09:41:19;;;;;;;;;;;;;;;17.36;22.84;98843.94;4979363;28;20436;-82
2022/12/14 09:43:46;;;;;;;;;;;;;;;16.92;23.50;98848.44;4964958;28;20063;-82
2022/12/14 09:46:18;;;;;;;;;;;;;;;16.50;24.07;98835.94;4989570;28;19929;-80
2022/12/14 09:48:43;;;;;;;;;;;;;;;16.15;24.72;98827.91;4986236;28;19961;-83
2022/12/14 09:51:15;;;;;;;;;;;;;;;15.79;25.24;98837.59;4963282;28;19984;-81
2022/12/14 09:53:41;;;;;;;;;;;;;;;15.48;25.73;98840.47;4962973;28;19960;-82
2022/12/14 09:56:06;;;;;;;;;;;;;;;15.24;26.30;98836.56;4979035;28;19957;-82
2022/12/14 09:58:33;;;;;;;;;;;;;;;15.07;26.74;98832.06;4962620;28;19921;-84
2022/12/14 10:01:07;;;;;;;;;;;;;;;14.86;27.10;98837.50;4962215;28;19918;-82
2022/12/14 10:03:36;;;;;;;;;;;;;;;14.70;27.36;98832.84;4978743;28;19918;-83
2022/12/14 10:06:17;;;;;;;;;;;;;;;14.51;27.58;98831.03;4978364;28;19918;-82
2022/12/14 10:08:48;;;;;;;;;;;;;;;14.33;27.99;98833.53;4978438;28;19972;-83
2022/12/14 10:11:32;;;;;;;;;;;;;;;14.18;28.08;98828.69;4978652;28;19918;-81
2022/12/14 10:13:58;;;;;;;;;;;;;;;14.02;28.35;98820.53;4978160;28;19918;-82
2022/12/14 10:16:38;;;;;;;;;;;;;;;13.88;28.68;98803.41;4978115;28;19918;-82
2022/12/14 10:19:03;;;;;;;;;;;;;;;13.75;28.67;98793.16;4978031;28;19932;-81
2022/12/14 10:21:37;;;;;;;;;;;;;;;13.67;29.15;98780.72;4978059;28;20365;-83
2022/12/14 10:24:03;;;;;;;;;;;;;;;13.63;29.29;98781.13;4961949;28;19949;-82
2022/12/14 10:26:35;;;;;;;;;;;;;;;13.55;29.25;98784.41;4961718;28;19921;-82
2022/12/14 10:29:10;;;;;;;;;;;;;;;13.49;29.72;98787.56;4995615;28;19918;-83
2022/12/14 10:31:56;;;;;;;;;;;;;;;13.39;30.09;98792.81;4961932;28;19964;-82
2022/12/14 10:34:22;;;;;;;;;;;;;;;13.33;30.10;98804.66;4961943;28;19968;-82
2022/12/14 10:36:51;;;;;;;;;;;;;;;13.27;30.37;98799.09;4962060;28;19929;-82
2022/12/14 10:39:21;;;;;;;;;;;;;;;13.19;30.66;98786.66;4963155;28;19918;-82
2022/12/14 10:42:03;;;;;;;;;;;;;;;13.13;30.73;98790.63;4962102;28;19941;-83
2022/12/14 10:44:38;;;;;;;;;;;;;;;13.09;30.56;98788.41;4978240;28;19918;-83
2022/12/14 10:47:07;;;;;;;;;;;;;;;12.98;30.99;98784.91;4978723;28;19918;-82
2022/12/14 10:49:35;;;;;;;;;;;;;;;12.90;30.76;98778.66;4962189;28;19952;-83
2022/12/14 10:52:01;;;;;;;;;;;;;;;12.80;30.88;98776.81;4964710;28;19918;-83
2022/12/14 10:54:29;;;;;;;;;;;;;;;12.79;30.91;98775.19;4961439;28;19917;-84
2022/12/14 10:56:55;;;;;;;;;;;;;;;12.83;30.84;98775.75;4977758;28;19918;-83
2022/12/14 10:59:24;;;;;;;;;;;;;;;12.85;31.43;98771.19;4961775;28;19918;-84
2022/12/14 11:01:53;;;;;;;;;;;;;;;12.92;31.33;98777.56;4961154;28;20027;-86
2022/12/14 11:04:31;;;;;;;;;;;;;;;12.99;31.14;98770.00;4961487;28;20294;-83
2022/12/14 11:06:57;;;;;;;;;;;;;;;13.01;31.51;98770.69;4977557;28;19918;-82
2022/12/14 11:09:22;;;;;;;;;;;;;;;13.02;31.55;98764.50;4977290;28;19971;-84
2022/12/14 11:11:47;;;;;;;;;;;;;;;13.11;31.59;98755.88;4979317;28;19925;-83
2022/12/14 11:14:16;;;;;;;;;;;;;;;13.15;31.57;98752.00;4977897;28;20364;-82
2022/12/14 11:16:41;;;;;;;;;;;;;;;13.20;31.43;98741.97;4965334;28;19918;-82
2022/12/14 11:19:17;;;;;;;;;;;;;;;13.29;31.25;98736.88;4961783;28;20377;-82
2022/12/14 11:21:43;;;;;;;;;;;;;;;13.39;31.28;98727.25;4960508;28;19917;-84
2022/12/14 11:24:19;;;;;;;;;;;;;;;13.49;31.28;98732.50;4960583;28;19918;-83
2022/12/14 11:26:44;;;;;;;;;;;;;;;13.53;31.07;98739.97;4960330;28;19997;-82
2022/12/14 11:29:21;;;;;;;;;;;;;;;13.61;30.91;98747.16;4977373;28;19956;-82
2022/12/14 11:31:47;;;;;;;;;;;;;;;13.61;31.03;98727.97;4960616;28;19918;-81
2022/12/14 11:34:25;;;;;;;;;;;;;;;13.63;30.61;98726.03;4960006;28;19924;-83
2022/12/14 11:36:50;;;;;;;;;;;;;;;13.67;30.63;98727.44;4993754;28;19976;-81
2022/12/14 11:39:25;;;;;;;;;;;;;;;13.66;30.87;98721.38;4993986;28;19922;-82
2022/12/14 11:41:56;;;;;;;;;;;;;;;13.65;30.89;98730.19;4960616;28;19922;-82
2022/12/14 11:44:23;;;;;;;;;;;;;;;13.57;30.78;98728.25;4977157;28;19971;-82
2022/12/14 11:46:53;;;;;;;;;;;;;;;13.53;30.94;98721.63;4960277;28;20012;-82
2022/12/14 11:49:28;;;;;;;;;;;;;;;13.49;31.12;98720.25;4960258;28;19924;-83
2022/12/14 11:51:54;;;;;;;;;;;;;;;13.47;31.21;98723.97;4994115;28;19925;-83
2022/12/14 11:54:19;;;;;;;;;;;;;;;13.44;31.45;98722.44;4960005;28;20021;-82
2022/12/14 11:56:44;;;;;;;;;;;;;;;13.38;31.55;98712.50;4960134;28;19964;-82
2022/12/14 11:59:12;;;;;;;;;;;;;;;13.34;31.62;98714.53;4960029;28;19924;-82
2022/12/14 12:01:37;;;;;;;;;;;;;;;13.34;31.80;98708.47;4976161;28;20013;-81
2022/12/14 12:04:03;;;;;;;;;;;;;;;13.31;31.93;98717.41;4959779;28;19945;-82
2022/12/14 12:06:28;;;;;;;;;;;;;;;13.29;31.88;98716.72;4976311;28;19964;-83
2022/12/14 12:09:01;;;;;;;;;;;;;;;13.27;31.95;98704.72;4960205;28;19921;-81
2022/12/14 12:11:27;;;;;;;;;;;;;;;13.24;31.75;98707.63;4960249;28;19968;-83
2022/12/14 12:13:57;;;;;;;;;;;;;;;13.25;31.92;98696.16;4959593;28;19917;-82
2022/12/14 12:16:24;;;;;;;;;;;;;;;13.28;32.06;98699.31;4960197;28;19924;-83
2022/12/14 12:19:00;;;;;;;;;;;;;;;13.31;31.82;98687.75;4959604;28;19926;-82
2022/12/14 12:21:29;;;;;;;;;;;;;;;13.34;31.36;98687.50;4959922;28;19922;-83
2022/12/14 12:24:12;;;;;;;;;;;;;;;13.41;31.61;98688.63;4960086;28;19917;-80
2022/12/14 12:26:43;;;;;;;;;;;;;;;13.45;31.19;98692.63;4975985;28;19989;-83
2022/12/14 12:29:08;;;;;;;;;;;;;;;13.49;31.30;98694.03;4975928;28;19924;-80
2022/12/14 12:31:37;;;;;;;;;;;;;;;13.52;31.40;98696.38;4975754;28;20008;-84
2022/12/14 12:34:05;;;;;;;;;;;;;;;13.57;30.99;98685.47;4959693;28;19917;-83
2022/12/14 12:36:31;;;;;;;;;;;;;;;13.62;30.97;98700.81;4961130;28;19918;-83
2022/12/14 12:39:11;;;;;;;;;;;;;;;13.72;30.92;98706.88;4960053;28;20364;-82
2022/12/14 12:41:55;;;;;;;;;;;;;;;13.75;30.85;98704.78;4975571;28;19922;-82
2022/12/14 12:44:46;;;;;;;;;;;;;;;13.74;31.10;98702.31;4993293;28;19925;-83
2022/12/14 12:47:32;;;;;;;;;;;;;;;13.71;30.98;98697.31;4991196;28;19961;-84
2022/12/14 12:50:00;;;;;;;;;;;;;;;13.63;31.37;98689.31;4992686;28;20305;-79
2022/12/14 12:52:27;;;;;;;;;;;;;;;13.57;31.25;98688.09;4961694;28;19976;-83
2022/12/14 12:54:58;;;;;;;;;;;;;;;13.51;31.44;98680.78;4976716;28;20452;-83
2022/12/14 12:57:24;;;;;;;;;;;;;;;13.42;31.44;98700.75;4976577;28;19929;-83
2022/12/14 12:59:50;;;;;;;;;;;;;;;13.28;31.86;98688.03;4976909;28;19918;-83
2022/12/14 13:02:23;;;;;;;;;;;;;;;13.19;31.97;98689.66;4978032;28;20385;-82
2022/12/14 13:04:49;;;;;;;;;;;;;;;13.10;31.94;98685.22;4983098;28;19924;-83
2022/12/14 13:07:29;;;;;;;;;;;;;;;13.03;32.21;98679.72;4966902;28;19918;-82
2022/12/14 13:10:00;;;;;;;;;;;;;;;12.92;32.09;98677.16;4997349;28;19918;-85